createdAt,value
2022-11-16T04:43:10.852Z,99493.28
2022-11-16T04:48:14.066Z,99491.13
2022-11-16T04:53:16.269Z,99482.72
2022-11-16T04:58:18.258Z,99487.66
2022-11-16T05:03:20.241Z,99473.47
2022-11-16T05:08:22.241Z,99490.06
2022-11-16T05:13:24.225Z,99484.09
2022-11-16T05:18:26.230Z,99465.19
2022-11-16T05:23:46.844Z,99467.87
2022-11-16T05:28:49.018Z,99470.62
2022-11-16T05:33:51.009Z,99471.19
2022-11-16T05:38:56.260Z,99454.63
2022-11-16T05:43:58.521Z,99456.06
2022-11-16T05:49:00.682Z,99443.81
2022-11-16T05:54:04.037Z,99450.91
2022-11-16T05:59:06.749Z,99431.19
2022-11-16T06:04:09.458Z,99426.91
2022-11-16T06:09:12.515Z,99434.75
2022-11-16T06:14:14.524Z,99435.81
2022-11-16T06:19:16.530Z,99418.47
2022-11-16T06:24:18.504Z,99426.34
2022-11-16T06:29:20.647Z,99422.81
2022-11-16T06:34:22.626Z,99429.37
2022-11-16T06:39:24.646Z,99436.44
2022-11-16T06:44:26.660Z,99436.72
2022-11-16T06:49:28.807Z,99420.47
2022-11-16T06:54:30.809Z,99420.53
2022-11-16T06:59:32.824Z,99407.28
2022-11-16T07:04:34.828Z,99414.31
2022-11-16T07:09:36.842Z,99405.66
2022-11-16T07:14:38.949Z,99401.38
2022-11-16T07:19:40.991Z,99403.34
2022-11-16T07:24:43.031Z,99398.72
2022-11-16T07:29:45.029Z,99381.69
2022-11-16T07:34:47.031Z,99396.56
2022-11-16T07:39:49.030Z,99387.09
2022-11-16T07:44:51.089Z,99381.69
2022-11-16T07:49:53.119Z,99388.16
2022-11-16T07:54:55.109Z,99385.78
2022-11-16T07:59:57.160Z,99385.56
2022-11-16T08:04:59.148Z,99379.88
2022-11-16T08:10:01.988Z,99372.88
2022-11-16T08:15:04.433Z,99367.50
2022-11-16T08:20:08.325Z,99353.97
2022-11-16T08:25:11.033Z,99354.78
2022-11-16T08:30:13.437Z,99362.66
2022-11-16T08:35:15.562Z,99348.00
2022-11-16T08:40:17.751Z,99346.16
2022-11-16T08:45:19.758Z,99356.50
2022-11-16T08:50:21.794Z,99350.28
2022-11-16T08:55:24.898Z,99353.00
2022-11-16T09:00:26.885Z,99352.47
2022-11-16T09:05:29.335Z,99364.41
2022-11-16T09:10:31.542Z,99350.06
2022-11-16T09:15:33.527Z,99337.06
2022-11-16T09:20:35.680Z,99341.41
2022-11-16T09:25:37.679Z,99330.34
2022-11-16T09:36:07.212Z,99323.06
2022-11-16T09:41:15.161Z,99333.88
2022-11-16T09:46:26.721Z,99329.84
2022-11-16T09:51:33.665Z,99314.97
2022-11-16T09:56:40.057Z,99302.53
2022-11-16T10:01:46.996Z,99303.88
2022-11-16T10:07:08.084Z,99289.00
2022-11-16T10:12:16.662Z,99290.63
2022-11-16T10:17:46.256Z,99284.97
2022-11-16T10:23:00.683Z,99267.09
2022-11-16T10:28:05.685Z,99262.22
2022-11-16T10:33:12.780Z,99259.25
2022-11-16T10:38:22.333Z,99253.56
2022-11-16T10:43:28.461Z,99247.34
2022-11-16T10:48:41.193Z,99235.72
2022-11-16T10:53:44.255Z,99242.22
2022-11-16T11:05:08.031Z,99233.81
2022-11-16T11:10:42.717Z,99211.38
2022-11-16T11:15:44.997Z,99218.69
2022-11-16T11:20:52.474Z,99185.94
2022-11-16T11:25:57.760Z,99188.66
2022-11-16T11:31:04.258Z,99175.38
2022-11-16T11:36:09.604Z,99170.78
2022-11-16T11:41:19.044Z,99158.88
2022-11-16T11:46:50.194Z,99167.28
2022-11-16T11:51:52.189Z,99165.38
2022-11-16T11:56:54.555Z,99154.28
2022-11-16T12:02:04.150Z,99147.78
2022-11-16T12:07:09.182Z,99146.19
2022-11-16T12:12:39.085Z,99155.63
2022-11-16T12:17:55.145Z,99147.50
2022-11-16T12:23:03.942Z,99145.06
2022-11-16T12:28:28.438Z,99159.16
2022-11-16T12:34:24.265Z,99147.22
2022-11-16T12:39:44.389Z,99148.88
2022-11-16T12:45:07.890Z,99135.06
2022-11-16T12:50:50.185Z,99137.78
2022-11-16T12:56:10.540Z,99123.94
2022-11-16T13:01:40.388Z,99120.72
2022-11-16T13:07:10.891Z,99118.28
2022-11-16T13:12:17.287Z,99126.66
2022-11-16T13:17:22.872Z,99124.75
2022-11-16T13:22:28.780Z,99103.66
2022-11-16T13:27:41.294Z,99112.34
2022-11-16T13:32:47.753Z,99107.75
2022-11-16T13:37:52.095Z,99115.59
2022-11-16T13:43:04.902Z,99115.31
2022-11-16T13:48:21.197Z,99115.59
2022-11-16T13:58:55.678Z,99095.31
2022-11-16T14:04:34.391Z,99090.97
2022-11-16T14:09:44.108Z,99096.66
2022-11-16T14:15:14.614Z,99090.97
2022-11-16T14:20:24.708Z,99091.22
2022-11-16T14:25:37.376Z,99084.22
2022-11-16T14:31:25.871Z,99085.81
2022-11-16T14:36:38.654Z,99081.50
2022-11-16T14:41:44.723Z,99074.50
2022-11-16T14:46:46.895Z,99077.72
2022-11-16T14:51:55.830Z,99064.50
2022-11-16T14:57:17.788Z,99076.91
2022-11-16T15:02:23.348Z,99072.06
2022-11-16T15:07:28.548Z,99068.00
2022-11-16T15:12:42.557Z,99058.00
2022-11-16T15:17:51.990Z,99052.03
2022-11-16T15:22:58.759Z,99055.53
2022-11-16T15:28:05.220Z,99049.59
2022-11-16T15:33:15.609Z,99049.34
2022-11-16T15:38:19.995Z,99051.50
2022-11-16T15:43:26.483Z,99045.53
2022-11-16T15:48:29.842Z,99039.34
2022-11-16T15:53:41.688Z,99049.91
2022-11-16T15:58:44.652Z,99042.84
2022-11-16T16:03:54.390Z,99048.25
2022-11-16T16:09:06.622Z,99031.50
2022-11-16T16:14:10.915Z,99030.97
2022-11-16T16:19:32.539Z,99025.81
2022-11-16T16:24:46.126Z,99030.12
2022-11-16T16:29:50.163Z,99027.19
2022-11-16T16:34:57.493Z,99020.44
2022-11-16T16:40:00.140Z,99034.75
2022-11-16T16:45:02.488Z,99034.19
2022-11-16T16:50:04.821Z,99020.69
2022-11-16T16:55:07.134Z,99029.62
2022-11-16T17:00:11.161Z,99015.28
2022-11-16T17:05:13.225Z,99011.78
2022-11-16T17:10:15.891Z,99025.81
2022-11-16T17:15:19.445Z,99020.41
2022-11-16T17:20:21.717Z,99005.81
2022-11-16T17:25:23.809Z,99011.50
2022-11-16T17:30:25.818Z,99017.44
2022-11-16T17:35:27.859Z,99016.63
2022-11-16T17:40:29.876Z,99009.34
2022-11-16T17:45:32.187Z,99015.56
2022-11-16T17:50:34.204Z,98989.59
2022-11-16T17:55:37.538Z,98995.81
2022-11-16T18:00:39.535Z,98998.50
2022-11-16T18:05:41.617Z,99004.75
2022-11-16T18:10:43.987Z,98991.50
2022-11-16T18:15:45.958Z,98991.75
2022-11-16T18:20:50.802Z,98998.25
2022-11-16T18:25:53.272Z,98998.81
2022-11-16T18:31:09.829Z,98987.44
2022-11-16T18:36:12.657Z,98977.19
2022-11-16T18:41:16.587Z,98980.13
2022-11-16T18:46:23.760Z,98991.50
2022-11-16T18:51:27.443Z,98985.28
2022-11-16T18:56:29.611Z,98980.91
2022-11-16T19:01:31.696Z,98976.62
2022-11-16T19:06:33.798Z,98992.59
2022-11-16T19:11:36.086Z,98987.44
2022-11-16T19:16:43.403Z,98985.81
2022-11-16T19:21:49.431Z,98983.62
2022-11-16T19:26:52.057Z,98970.41
2022-11-16T19:31:54.091Z,98980.41
2022-11-16T19:36:56.088Z,98985.81
2022-11-16T19:41:58.088Z,98979.87
2022-11-16T19:47:00.417Z,98972.56
2022-11-16T19:52:02.404Z,98966.91
2022-11-16T19:57:04.491Z,98959.28
2022-11-16T20:02:06.499Z,98966.91
2022-11-16T20:07:09.744Z,98959.06
2022-11-16T20:12:11.853Z,98952.28
2022-11-16T20:17:13.906Z,98955.78
2022-11-16T20:22:16.773Z,98961.19
2022-11-16T20:27:19.110Z,98964.47
2022-11-16T20:32:21.160Z,98969.59
2022-11-16T20:37:23.175Z,98972.84
2022-11-16T20:42:25.276Z,98968.78
2022-11-16T20:47:27.362Z,98958.78
2022-11-16T20:52:29.370Z,98948.78
2022-11-16T20:57:31.462Z,98950.16
2022-11-16T21:02:33.522Z,98934.97
2022-11-16T21:07:35.738Z,98955.56
2022-11-16T21:12:56.157Z,98945.25
2022-11-16T21:17:58.720Z,98952.84
